Time;durP1;ratioP1;P1;durP2;ratioP2;P2;SDS_P1;SDS_P2;PMS_P1;PMS_P2;Temp;Humidity;BMP_temperature;BMP_pressure;BME280_temperature;BME280_humidity;BME280_pressure;Samples;Min_cycle;Max_cycle;Signal;HPM_P1;HPM_P2
2023/06/03 00:01:52;;;;;;;6.57;3.70;;;;;;;;;;5083088;28;20097;-71
2023/06/03 00:04:21;;;;;;;6.00;2.92;;;;;;;;;;5093595;28;20112;-71
2023/06/03 00:06:47;;;;;;;4.82;2.70;;;;;;;;;;5072954;28;20028;-71
2023/06/03 00:09:13;;;;;;;9.05;2.67;;;;;;;;;;5090945;28;20489;-71
2023/06/03 00:11:39;;;;;;;7.32;3.17;;;;;;;;;;5089419;28;20059;-71
2023/06/03 00:14:05;;;;;;;6.88;2.78;;;;;;;;;;5090881;28;20540;-71
2023/06/03 00:16:34;;;;;;;5.93;2.80;;;;;;;;;;5089289;28;20471;-71
2023/06/03 00:19:01;;;;;;;6.15;3.20;;;;;;;;;;5085788;28;20368;-71
2023/06/03 00:21:27;;;;;;;4.53;2.83;;;;;;;;;;5089553;28;20036;-71
2023/06/03 00:23:54;;;;;;;4.47;3.05;;;;;;;;;;5088252;28;20431;-71
2023/06/03 00:26:23;;;;;;;7.68;3.10;;;;;;;;;;5089701;28;20077;-71
2023/06/03 00:28:50;;;;;;;6.93;3.03;;;;;;;;;;5090145;28;20024;-71
2023/06/03 00:31:16;;;;;;;5.53;2.85;;;;;;;;;;5083188;28;20035;-71
2023/06/03 00:33:42;;;;;;;7.13;3.03;;;;;;;;;;5089870;28;20035;-71
2023/06/03 00:36:08;;;;;;;7.32;3.00;;;;;;;;;;5090323;28;20020;-71
2023/06/03 00:38:34;;;;;;;4.63;2.20;;;;;;;;;;5090065;28;20309;-71
2023/06/03 00:41:00;;;;;;;4.63;2.78;;;;;;;;;;5089244;28;20498;-71
2023/06/03 00:43:26;;;;;;;6.40;2.35;;;;;;;;;;5089233;28;20119;-73
2023/06/03 00:45:52;;;;;;;5.10;2.00;;;;;;;;;;5086548;28;20106;-74
2023/06/03 00:48:18;;;;;;;5.15;2.35;;;;;;;;;;5090055;28;20032;-74
2023/06/03 00:50:44;;;;;;;4.30;2.10;;;;;;;;;;5087018;28;20057;-74
2023/06/03 00:53:11;;;;;;;3.83;2.00;;;;;;;;;;5084021;28;20471;-74
2023/06/03 00:55:38;;;;;;;4.13;2.25;;;;;;;;;;5090517;28;20028;-74
2023/06/03 00:58:04;;;;;;;7.53;2.20;;;;;;;;;;5089505;28;20028;-74
2023/06/03 01:00:30;;;;;;;3.88;1.98;;;;;;;;;;5088286;28;20394;-73
2023/06/03 01:02:57;;;;;;;2.92;1.83;;;;;;;;;;5088116;28;20054;-74
2023/06/03 01:05:23;;;;;;;4.50;2.28;;;;;;;;;;5085545;28;20449;-74
2023/06/03 01:07:52;;;;;;;3.95;2.00;;;;;;;;;;5088515;28;20035;-74
2023/06/03 01:10:18;;;;;;;5.57;2.10;;;;;;;;;;5089863;28;20032;-73
2023/06/03 01:12:44;;;;;;;3.55;2.08;;;;;;;;;;5071038;28;20055;-73
2023/06/03 01:15:13;;;;;;;4.10;2.15;;;;;;;;;;5089494;28;20047;-73
2023/06/03 01:17:45;;;;;;;5.20;2.17;;;;;;;;;;5084728;28;20103;-74
2023/06/03 01:20:12;;;;;;;4.15;2.22;;;;;;;;;;5089901;28;20271;-74
2023/06/03 01:22:44;;;;;;;4.95;2.53;;;;;;;;;;5084272;28;20025;-73
2023/06/03 01:25:11;;;;;;;3.20;2.38;;;;;;;;;;5082472;28;20020;-73
2023/06/03 01:27:38;;;;;;;7.85;1.90;;;;;;;;;;5089412;28;20116;-73
2023/06/03 01:30:06;;;;;;;6.80;2.20;;;;;;;;;;5089217;28;20580;-73
2023/06/03 01:32:33;;;;;;;4.30;2.30;;;;;;;;;;5084289;28;20115;-73
2023/06/03 01:34:59;;;;;;;5.22;2.00;;;;;;;;;;5085735;28;20043;-73
2023/06/03 01:37:26;;;;;;;2.63;1.92;;;;;;;;;;5070866;28;20024;-73
2023/06/03 01:39:52;;;;;;;3.40;2.17;;;;;;;;;;5083872;28;20107;-73
2023/06/03 01:42:18;;;;;;;2.90;1.80;;;;;;;;;;5070183;28;20051;-73
2023/06/03 01:44:44;;;;;;;4.45;2.05;;;;;;;;;;5088086;28;20032;-73
2023/06/03 01:47:11;;;;;;;5.28;2.20;;;;;;;;;;5088844;28;20032;-73
2023/06/03 01:49:38;;;;;;;4.28;2.20;;;;;;;;;;5080525;28;20020;-73
2023/06/03 01:52:04;;;;;;;4.35;2.10;;;;;;;;;;5082376;28;20438;-73
2023/06/03 01:54:30;;;;;;;5.30;2.10;;;;;;;;;;5088308;28;20051;-73
2023/06/03 01:56:57;;;;;;;6.47;2.08;;;;;;;;;;5088979;28;20024;-73
2023/06/03 01:59:24;;;;;;;3.80;2.30;;;;;;;;;;5082492;28;20027;-73
2023/06/03 02:01:51;;;;;;;3.95;2.08;;;;;;;;;;5084346;28;20111;-73
2023/06/03 02:04:17;;;;;;;2.88;2.03;;;;;;;;;;5086208;28;20079;-73
2023/06/03 02:06:50;;;;;;;4.15;2.38;;;;;;;;;;5082392;28;20057;-73
2023/06/03 02:09:16;;;;;;;6.15;2.33;;;;;;;;;;5088781;28;20050;-73
2023/06/03 02:11:42;;;;;;;4.93;2.13;;;;;;;;;;5088940;28;20467;-73
2023/06/03 02:14:08;;;;;;;2.75;1.92;;;;;;;;;;5088675;28;20413;-73
2023/06/03 02:16:34;;;;;;;4.15;1.90;;;;;;;;;;5070776;28;20114;-73
2023/06/03 02:19:03;;;;;;;4.05;1.80;;;;;;;;;;5088634;28;20031;-73
2023/06/03 02:21:29;;;;;;;3.15;2.00;;;;;;;;;;5074708;28;20032;-73
2023/06/03 02:23:56;;;;;;;3.40;1.80;;;;;;;;;;5086570;28;20026;-73
2023/06/03 02:26:22;;;;;;;2.47;1.80;;;;;;;;;;5087767;28;20104;-73
2023/06/03 02:28:48;;;;;;;4.80;2.00;;;;;;;;;;5088482;28;20122;-73
2023/06/03 02:31:14;;;;;;;3.00;1.88;;;;;;;;;;5088354;28;20040;-73
2023/06/03 02:33:40;;;;;;;3.22;2.10;;;;;;;;;;5085501;28;20034;-73
2023/06/03 02:36:06;;;;;;;3.92;2.17;;;;;;;;;;5088546;28;20079;-73
2023/06/03 02:38:32;;;;;;;2.22;1.70;;;;;;;;;;5088054;28;20391;-73
2023/06/03 02:40:58;;;;;;;4.10;1.70;;;;;;;;;;5088366;28;20043;-73
2023/06/03 02:43:24;;;;;;;3.55;2.00;;;;;;;;;;5088050;28;20047;-73
2023/06/03 02:45:50;;;;;;;6.50;2.00;;;;;;;;;;5084801;28;20099;-73
2023/06/03 02:48:16;;;;;;;5.32;2.00;;;;;;;;;;5086436;28;20058;-73
2023/06/03 02:50:42;;;;;;;3.33;1.75;;;;;;;;;;5065111;28;20032;-73
2023/06/03 02:53:17;;;;;;;3.00;1.58;;;;;;;;;;5086085;28;20074;-73
2023/06/03 02:55:44;;;;;;;4.13;1.77;;;;;;;;;;5080703;28;20655;-73
2023/06/03 02:58:12;;;;;;;2.53;2.05;;;;;;;;;;5087060;28;20112;-73
2023/06/03 03:00:38;;;;;;;2.83;1.83;;;;;;;;;;5087896;28;20035;-73
2023/06/03 03:03:04;;;;;;;2.53;1.52;;;;;;;;;;5086818;28;20666;-74
2023/06/03 03:05:32;;;;;;;3.47;1.85;;;;;;;;;;5088382;28;20378;-73
2023/06/03 03:08:01;;;;;;;2.97;1.60;;;;;;;;;;5083361;28;20387;-73
2023/06/03 03:10:27;;;;;;;3.72;1.60;;;;;;;;;;5086348;28;20028;-73
2023/06/03 03:12:53;;;;;;;4.88;1.95;;;;;;;;;;5087475;28;20016;-73
2023/06/03 03:15:19;;;;;;;4.38;1.80;;;;;;;;;;5087659;28;20039;-73
2023/06/03 03:17:45;;;;;;;3.70;2.10;;;;;;;;;;5086515;28;20020;-73
2023/06/03 03:20:12;;;;;;;2.55;1.40;;;;;;;;;;5088204;28;20039;-73
2023/06/03 03:22:44;;;;;;;3.83;1.70;;;;;;;;;;5069562;28;20115;-73
2023/06/03 03:25:10;;;;;;;3.05;1.75;;;;;;;;;;5090295;28;20047;-73
2023/06/03 03:27:35;;;;;;;2.78;1.67;;;;;;;;;;5091311;28;20055;-73
2023/06/03 03:30:02;;;;;;;2.85;1.63;;;;;;;;;;5092163;28;20366;-73
2023/06/03 03:32:28;;;;;;;2.60;1.80;;;;;;;;;;5085669;28;20060;-73
2023/06/03 03:35:13;;;;;;;2.78;1.88;;;;;;;;;;5091594;28;20034;-73
2023/06/03 03:37:40;;;;;;;5.05;1.80;;;;;;;;;;5089976;28;20064;-73
2023/06/03 03:40:11;;;;;;;4.05;2.20;;;;;;;;;;5091185;28;20031;-73
2023/06/03 03:42:38;;;;;;;5.47;1.88;;;;;;;;;;5083347;28;20112;-73
2023/06/03 03:45:07;;;;;;;3.53;1.50;;;;;;;;;;5091458;28;20074;-73
2023/06/03 03:47:33;;;;;;;2.95;1.58;;;;;;;;;;5090890;28;20400;-73
2023/06/03 03:50:01;;;;;;;2.22;1.40;;;;;;;;;;5086864;28;20520;-73
2023/06/03 03:52:30;;;;;;;3.55;1.80;;;;;;;;;;5071956;28;20160;-73
2023/06/03 03:55:00;;;;;;;2.50;1.52;;;;;;;;;;5088104;28;20024;-73
2023/06/03 03:57:26;;;;;;;2.67;1.67;;;;;;;;;;5087720;28;20028;-73
2023/06/03 03:59:54;;;;;;;4.20;1.42;;;;;;;;;;5090884;28;20077;-73
2023/06/03 04:02:20;;;;;;;2.75;1.50;;;;;;;;;;5091002;28;20490;-73
2023/06/03 04:04:46;;;;;;;4.25;1.48;;;;;;;;;;5089431;28;20040;-73
2023/06/03 04:07:20;;;;;;;2.97;1.50;;;;;;;;;;5090937;28;20028;-73
2023/06/03 04:09:46;;;;;;;2.25;1.52;;;;;;;;;;5067354;28;20020;-73
2023/06/03 04:12:29;;;;;;;4.20;1.60;;;;;;;;;;5090613;28;20020;-73
2023/06/03 04:14:57;;;;;;;3.58;1.50;;;;;;;;;;5089617;28;20114;-73
2023/06/03 04:17:25;;;;;;;1.77;1.42;;;;;;;;;;5090722;28;20529;-73
2023/06/03 04:19:52;;;;;;;2.15;1.55;;;;;;;;;;5089731;28;20020;-73
2023/06/03 04:22:21;;;;;;;4.82;1.75;;;;;;;;;;5070314;28;20745;-73
2023/06/03 04:24:51;;;;;;;3.00;1.20;;;;;;;;;;5087967;28;20081;-73
2023/06/03 04:27:17;;;;;;;2.08;1.40;;;;;;;;;;5087663;28;20020;-73
2023/06/03 04:29:43;;;;;;;5.07;1.52;;;;;;;;;;5089228;28;20081;-73
2023/06/03 04:32:09;;;;;;;2.53;1.30;;;;;;;;;;5090511;28;20043;-73
2023/06/03 04:34:36;;;;;;;2.47;1.55;;;;;;;;;;5088594;28;20055;-73
2023/06/03 04:37:02;;;;;;;1.90;1.20;;;;;;;;;;5089455;28;20383;-73
2023/06/03 04:39:28;;;;;;;3.20;1.50;;;;;;;;;;5090735;28;20301;-73
2023/06/03 04:41:55;;;;;;;2.60;1.85;;;;;;;;;;5083046;28;20369;-74
2023/06/03 04:44:21;;;;;;;2.67;1.50;;;;;;;;;;5089904;28;20019;-73
2023/06/03 04:46:50;;;;;;;1.60;1.50;;;;;;;;;;5084430;28;20020;-73
2023/06/03 04:49:16;;;;;;;3.42;1.90;;;;;;;;;;5090566;28;20024;-74
2023/06/03 04:51:42;;;;;;;3.20;1.25;;;;;;;;;;5088768;28;20059;-74
2023/06/03 04:54:08;;;;;;;1.70;1.13;;;;;;;;;;5090100;28;20059;-74
2023/06/03 04:56:34;;;;;;;2.53;1.60;;;;;;;;;;5090090;28;20137;-74
2023/06/03 04:59:00;;;;;;;2.40;1.42;;;;;;;;;;5089434;28;20024;-74
2023/06/03 05:01:27;;;;;;;3.20;1.30;;;;;;;;;;5089734;28;20028;-74
2023/06/03 05:03:53;;;;;;;3.05;1.55;;;;;;;;;;5089500;28;20113;-74
2023/06/03 05:06:19;;;;;;;3.50;1.60;;;;;;;;;;5089539;28;20035;-74
2023/06/03 05:08:47;;;;;;;2.40;1.48;;;;;;;;;;5089813;28;20024;-74
2023/06/03 05:11:15;;;;;;;2.28;1.52;;;;;;;;;;5082630;28;20446;-74
2023/06/03 05:13:41;;;;;;;2.17;1.33;;;;;;;;;;5089864;28;20024;-74
2023/06/03 05:16:07;;;;;;;2.88;1.52;;;;;;;;;;5086669;28;20429;-74
2023/06/03 05:18:35;;;;;;;1.77;1.40;;;;;;;;;;5083605;28;20099;-74
2023/06/03 05:21:01;;;;;;;2.22;1.52;;;;;;;;;;5085536;28;20024;-74
2023/06/03 05:23:27;;;;;;;4.10;1.60;;;;;;;;;;5089512;28;20024;-74
2023/06/03 05:25:53;;;;;;;5.28;1.50;;;;;;;;;;5084784;28;20443;-74
2023/06/03 05:28:19;;;;;;;6.43;1.55;;;;;;;;;;5089514;28;20031;-74
2023/06/03 05:30:45;;;;;;;4.05;1.55;;;;;;;;;;5089414;28;20068;-74
2023/06/03 05:33:32;;;;;;;5.00;1.60;;;;;;;;;;5089126;28;20374;-74
2023/06/03 05:35:58;;;;;;;3.00;1.40;;;;;;;;;;5088637;28;20039;-74
2023/06/03 05:38:24;;;;;;;2.03;1.30;;;;;;;;;;5089022;28;20020;-74
2023/06/03 05:40:51;;;;;;;1.40;1.30;;;;;;;;;;5089179;28;20056;-75
2023/06/03 05:43:17;;;;;;;1.85;1.27;;;;;;;;;;5089211;28;20024;-75
2023/06/03 05:45:43;;;;;;;2.78;1.30;;;;;;;;;;5087177;28;20316;-75
2023/06/03 05:48:09;;;;;;;2.75;1.35;;;;;;;;;;5088218;28;20024;-75
2023/06/03 05:50:37;;;;;;;2.30;1.45;;;;;;;;;;5070928;28;20081;-75
2023/06/03 05:53:03;;;;;;;2.38;1.40;;;;;;;;;;5082272;28;20382;-75
2023/06/03 05:55:29;;;;;;;3.53;1.35;;;;;;;;;;5088637;28;20100;-75
2023/06/03 05:57:56;;;;;;;3.17;1.50;;;;;;;;;;5087165;28;20020;-75
2023/06/03 06:00:22;;;;;;;5.63;1.30;;;;;;;;;;5081759;28;20109;-73
2023/06/03 06:02:48;;;;;;;3.10;1.27;;;;;;;;;;5088379;28;20074;-73
2023/06/03 06:05:14;;;;;;;2.25;1.25;;;;;;;;;;5088395;28;20024;-73
2023/06/03 06:07:40;;;;;;;1.50;1.20;;;;;;;;;;5086892;28;20028;-72
2023/06/03 06:10:06;;;;;;;1.60;1.10;;;;;;;;;;5085213;28;20036;-73
2023/06/03 06:12:32;;;;;;;1.20;1.10;;;;;;;;;;5084538;28;20032;-73
2023/06/03 06:14:58;;;;;;;3.03;1.10;;;;;;;;;;5086903;28;20487;-73
2023/06/03 06:17:24;;;;;;;3.20;1.20;;;;;;;;;;5088499;28;20059;-73
2023/06/03 06:19:50;;;;;;;2.92;1.30;;;;;;;;;;5088810;28;20518;-73
2023/06/03 06:22:16;;;;;;;1.60;1.17;;;;;;;;;;5088589;28;20119;-73
2023/06/03 06:24:43;;;;;;;2.03;1.17;;;;;;;;;;5088683;28;20432;-73
2023/06/03 06:27:09;;;;;;;2.40;1.50;;;;;;;;;;5081149;28;20099;-73
2023/06/03 06:29:35;;;;;;;2.35;1.15;;;;;;;;;;5082625;28;20455;-73
2023/06/03 06:32:03;;;;;;;3.70;1.30;;;;;;;;;;5088538;28;20035;-73
2023/06/03 06:34:31;;;;;;;2.00;1.30;;;;;;;;;;5088485;28;20024;-73
2023/06/03 06:36:58;;;;;;;2.08;1.00;;;;;;;;;;5088480;28;20066;-73
2023/06/03 06:39:30;;;;;;;3.80;1.45;;;;;;;;;;5087997;28;20024;-73
2023/06/03 06:42:04;;;;;;;4.47;1.40;;;;;;;;;;5087985;28;20115;-73
2023/06/03 06:44:32;;;;;;;2.28;1.35;;;;;;;;;;5088449;28;20114;-73
2023/06/03 06:46:58;;;;;;;1.63;1.30;;;;;;;;;;5088101;28;20032;-73
2023/06/03 06:49:24;;;;;;;1.98;1.17;;;;;;;;;;5088200;28;20031;-73
2023/06/03 06:51:51;;;;;;;2.42;1.42;;;;;;;;;;5087383;28;20032;-73
2023/06/03 06:54:17;;;;;;;4.15;1.20;;;;;;;;;;5088009;28;20077;-72
2023/06/03 06:56:43;;;;;;;2.63;1.40;;;;;;;;;;5088301;28;20054;-73
2023/06/03 06:59:09;;;;;;;1.65;1.00;;;;;;;;;;5088631;28;20255;-73
2023/06/03 07:01:35;;;;;;;2.95;1.27;;;;;;;;;;5092143;28;20039;-73
2023/06/03 07:04:01;;;;;;;1.23;1.10;;;;;;;;;;5090788;28;20044;-73
2023/06/03 07:06:27;;;;;;;2.88;1.25;;;;;;;;;;5089038;28;20032;-73
2023/06/03 07:08:53;;;;;;;2.33;1.05;;;;;;;;;;5090956;28;20513;-73
2023/06/03 07:11:19;;;;;;;3.17;1.27;;;;;;;;;;5091908;28;20100;-73
2023/06/03 07:13:45;;;;;;;2.33;1.10;;;;;;;;;;5092078;28;20024;-73
2023/06/03 07:16:11;;;;;;;3.17;1.33;;;;;;;;;;5092036;28;20020;-73
2023/06/03 07:18:37;;;;;;;3.35;1.45;;;;;;;;;;5087030;28;20530;-73
2023/06/03 07:21:03;;;;;;;2.50;1.00;;;;;;;;;;5091311;28;20036;-73
2023/06/03 07:23:29;;;;;;;2.17;1.23;;;;;;;;;;5092138;28;20032;-73
2023/06/03 07:25:55;;;;;;;2.00;1.08;;;;;;;;;;5091835;28;20077;-73
2023/06/03 07:28:32;;;;;;;2.10;1.20;;;;;;;;;;5090568;28;20058;-73
2023/06/03 07:30:59;;;;;;;2.13;0.90;;;;;;;;;;5085127;28;20024;-73
2023/06/03 07:33:29;;;;;;;1.60;1.10;;;;;;;;;;5091212;28;20024;-73
2023/06/03 07:35:56;;;;;;;3.72;1.13;;;;;;;;;;5091620;28;20074;-73
2023/06/03 07:38:52;;;;;;;1.55;1.08;;;;;;;;;;5087441;28;20039;-73
2023/06/03 07:41:28;;;;;;;3.30;1.30;;;;;;;;;;5073722;28;20040;-73
2023/06/03 07:43:58;;;;;;;1.23;0.90;;;;;;;;;;5085623;28;20023;-73
2023/06/03 07:46:25;;;;;;;1.10;1.00;;;;;;;;;;5090984;28;20028;-73
2023/06/03 07:48:51;;;;;;;2.13;1.10;;;;;;;;;;5091416;28;20035;-73
2023/06/03 07:51:17;;;;;;;4.13;1.20;;;;;;;;;;5090429;28;20032;-73
2023/06/03 07:53:43;;;;;;;2.03;1.27;;;;;;;;;;5072659;28;20096;-73
2023/06/03 07:56:11;;;;;;;1.92;1.10;;;;;;;;;;5083485;28;20028;-73
2023/06/03 07:58:37;;;;;;;1.17;0.90;;;;;;;;;;5091121;28;20035;-73
2023/06/03 08:01:03;;;;;;;2.05;1.00;;;;;;;;;;5089864;28;20746;-73
2023/06/03 08:03:31;;;;;;;1.95;1.00;;;;;;;;;;5090363;28;20079;-73
2023/06/03 08:05:57;;;;;;;2.97;1.13;;;;;;;;;;5090402;28;20051;-73
2023/06/03 08:08:30;;;;;;;2.47;1.10;;;;;;;;;;5071982;28;20082;-73
2023/06/03 08:10:56;;;;;;;2.30;1.23;;;;;;;;;;5076224;28;20028;-73
2023/06/03 08:13:23;;;;;;;1.85;1.20;;;;;;;;;;5087976;28;20506;-73
2023/06/03 08:15:49;;;;;;;2.28;0.82;;;;;;;;;;5090272;28;20079;-73
2023/06/03 08:18:35;;;;;;;2.50;0.98;;;;;;;;;;5086351;28;20100;-73
2023/06/03 08:21:04;;;;;;;3.65;1.15;;;;;;;;;;5087425;28;20119;-73
2023/06/03 08:23:30;;;;;;;3.28;0.98;;;;;;;;;;5090757;28;20144;-73
2023/06/03 08:25:59;;;;;;;3.13;0.90;;;;;;;;;;5085238;28;20028;-73
2023/06/03 08:28:25;;;;;;;;;;;;;;;;;;5091057;28;20028;-73
2023/06/03 08:30:52;;;;;;;3.00;1.08;;;;;;;;;;5090025;28;19931;-73
2023/06/03 08:33:18;;;;;;;2.45;1.00;;;;;;;;;;5089888;28;20414;-73
2023/06/03 08:35:44;;;;;;;2.13;0.73;;;;;;;;;;5090476;28;20113;-73
2023/06/03 08:38:11;;;;;;;2.88;0.70;;;;;;;;;;5089928;28;20399;-73
2023/06/03 08:40:40;;;;;;;1.98;0.80;;;;;;;;;;5088767;28;20336;-73
2023/06/03 08:43:06;;;;;;;2.15;0.85;;;;;;;;;;5089525;28;20046;-73
2023/06/03 08:45:55;;;;;;;1.48;0.93;;;;;;;;;;5088626;28;20097;-73
2023/06/03 08:48:40;;;;;;;1.67;0.85;;;;;;;;;;5050212;28;20426;-73
2023/06/03 08:51:06;;;;;;;1.45;0.75;;;;;;;;;;5090013;28;20028;-73
2023/06/03 08:53:47;;;;;;;2.28;0.82;;;;;;;;;;5085738;28;20434;-73
2023/06/03 08:56:15;;;;;;;2.05;0.70;;;;;;;;;;5090075;28;20299;-73
2023/06/03 08:58:45;;;;;;;1.95;0.80;;;;;;;;;;5090018;28;20125;-73
2023/06/03 09:01:12;;;;;;;1.65;0.90;;;;;;;;;;5089547;28;20039;-73
2023/06/03 09:03:38;;;;;;;1.75;0.88;;;;;;;;;;5088416;28;20135;-73
2023/06/03 09:06:05;;;;;;;2.60;1.08;;;;;;;;;;5086579;28;20020;-73
2023/06/03 09:08:32;;;;;;;2.08;0.85;;;;;;;;;;5089808;28;20092;-73
2023/06/03 09:11:05;;;;;;;1.67;0.80;;;;;;;;;;5090010;28;20029;-73
2023/06/03 09:13:34;;;;;;;1.33;0.65;;;;;;;;;;5089707;28;20062;-73
2023/06/03 09:16:00;;;;;;;1.92;0.80;;;;;;;;;;5083012;28;20024;-73
2023/06/03 09:18:26;;;;;;;2.92;1.02;;;;;;;;;;5089421;28;20054;-73
2023/06/03 09:20:52;;;;;;;2.95;0.80;;;;;;;;;;5089166;28;20036;-73
2023/06/03 09:23:18;;;;;;;0.80;0.70;;;;;;;;;;5088709;28;20053;-73
2023/06/03 09:25:44;;;;;;;1.88;0.90;;;;;;;;;;5089139;28;20028;-73
2023/06/03 09:28:13;;;;;;;3.08;0.90;;;;;;;;;;5089350;28;20024;-73
2023/06/03 09:30:39;;;;;;;2.38;0.90;;;;;;;;;;5089227;28;20035;-73
2023/06/03 09:33:05;;;;;;;1.95;0.80;;;;;;;;;;5089293;28;20031;-73
2023/06/03 09:35:31;;;;;;;4.63;0.90;;;;;;;;;;5089319;28;20020;-73
2023/06/03 09:37:59;;;;;;;1.40;0.60;;;;;;;;;;5087030;28;20052;-73
2023/06/03 09:40:26;;;;;;;1.30;0.60;;;;;;;;;;5086465;28;20028;-73
2023/06/03 09:42:52;;;;;;;1.70;0.80;;;;;;;;;;5085054;28;20490;-73
2023/06/03 09:45:23;;;;;;;1.15;0.55;;;;;;;;;;5088385;28;20036;-73
2023/06/03 09:47:49;;;;;;;1.25;0.30;;;;;;;;;;5089275;28;20100;-73
2023/06/03 09:50:15;;;;;;;2.78;0.80;;;;;;;;;;5085753;28;20025;-73
2023/06/03 09:52:41;;;;;;;1.45;0.60;;;;;;;;;;5087656;28;20398;-73
2023/06/03 09:55:09;;;;;;;2.17;0.57;;;;;;;;;;5088584;28;20028;-73
2023/06/03 09:57:36;;;;;;;1.60;0.70;;;;;;;;;;5089134;28;20556;-73
2023/06/03 10:00:06;;;;;;;1.33;0.60;;;;;;;;;;5088414;28;20055;-73
2023/06/03 10:02:32;;;;;;;2.33;0.80;;;;;;;;;;5088853;28;20032;-73
2023/06/03 10:04:58;;;;;;;1.73;0.77;;;;;;;;;;5087341;28;20409;-73
2023/06/03 10:07:24;;;;;;;1.65;0.57;;;;;;;;;;5088719;28;20028;-73
2023/06/03 10:09:50;;;;;;;1.00;0.70;;;;;;;;;;5082856;28;20031;-73
2023/06/03 10:12:27;;;;;;;1.02;0.70;;;;;;;;;;5084621;28;20425;-73
2023/06/03 10:14:56;;;;;;;1.85;0.57;;;;;;;;;;5082441;28;20035;-73
2023/06/03 10:17:22;;;;;;;3.55;1.00;;;;;;;;;;5088665;28;20024;-73
2023/06/03 10:19:48;;;;;;;0.55;0.52;;;;;;;;;;5070584;28;20023;-73
2023/06/03 10:22:17;;;;;;;1.80;0.60;;;;;;;;;;5088469;28;20028;-73
2023/06/03 10:24:45;;;;;;;2.17;0.70;;;;;;;;;;5088389;28;20067;-73
2023/06/03 10:27:11;;;;;;;2.55;0.73;;;;;;;;;;5087763;28;20024;-73
2023/06/03 10:29:37;;;;;;;1.20;0.70;;;;;;;;;;5088752;28;20486;-73
2023/06/03 10:32:05;;;;;;;1.13;0.50;;;;;;;;;;5086128;28;20020;-73
2023/06/03 10:34:32;;;;;;;2.13;0.82;;;;;;;;;;5089285;28;20050;-73
2023/06/03 10:37:00;;;;;;;1.20;0.70;;;;;;;;;;5091881;28;20132;-73
2023/06/03 10:39:27;;;;;;;1.98;0.52;;;;;;;;;;5092230;28;20339;-73
2023/06/03 10:41:54;;;;;;;1.60;0.70;;;;;;;;;;5089743;28;20055;-73
2023/06/03 10:44:20;;;;;;;0.77;0.52;;;;;;;;;;5092626;28;20073;-73
2023/06/03 10:46:52;;;;;;;2.35;0.50;;;;;;;;;;5086442;28;20020;-73
2023/06/03 10:49:18;;;;;;;0.73;0.35;;;;;;;;;;5092473;28;20050;-73
2023/06/03 10:51:47;;;;;;;3.17;0.80;;;;;;;;;;5091837;28;20020;-73
2023/06/03 10:54:19;;;;;;;0.73;0.73;;;;;;;;;;5086933;28;20088;-73
2023/06/03 10:56:59;;;;;;;2.28;0.68;;;;;;;;;;5091738;28;20028;-73
2023/06/03 10:59:25;;;;;;;;;;;;;;;;;;5085532;28;20028;-73
2023/06/03 11:01:58;;;;;;;1.23;0.68;;;;;;;;;;5087404;28;19916;-73
2023/06/03 11:04:25;;;;;;;2.28;0.75;;;;;;;;;;5090715;28;20149;-73
2023/06/03 11:06:52;;;;;;;0.70;0.70;;;;;;;;;;5091940;28;20312;-73
2023/06/03 11:09:31;;;;;;;0.88;0.60;;;;;;;;;;5092041;28;20024;-73
2023/06/03 11:12:05;;;;;;;0.95;0.57;;;;;;;;;;5092116;28;20060;-73
2023/06/03 11:14:38;;;;;;;1.77;0.80;;;;;;;;;;5092183;28;20016;-73
2023/06/03 11:17:04;;;;;;;1.95;0.70;;;;;;;;;;5091759;28;20115;-73
2023/06/03 11:19:45;;;;;;;1.52;0.70;;;;;;;;;;5086463;28;20436;-72
2023/06/03 11:22:12;;;;;;;1.13;0.70;;;;;;;;;;5091181;28;20043;-73
2023/06/03 11:24:37;;;;;;;1.98;0.77;;;;;;;;;;5090934;28;20135;-73
2023/06/03 11:27:10;;;;;;;2.17;0.82;;;;;;;;;;5068657;28;20423;-73
2023/06/03 11:29:45;;;;;;;1.48;0.90;;;;;;;;;;5091111;28;20035;-73
2023/06/03 11:32:21;;;;;;;4.65;0.80;;;;;;;;;;5091303;28;20073;-73
2023/06/03 11:34:48;;;;;;;1.10;0.80;;;;;;;;;;5091523;28;20024;-73
2023/06/03 11:37:19;;;;;;;1.30;0.90;;;;;;;;;;5080542;28;20051;-73
2023/06/03 11:40:08;;;;;;;1.98;0.90;;;;;;;;;;5092068;28;20024;-73
2023/06/03 11:42:55;;;;;;;1.92;0.70;;;;;;;;;;5091433;28;20089;-73
2023/06/03 11:45:21;;;;;;;1.50;0.70;;;;;;;;;;5081795;28;20400;-73
2023/06/03 11:48:11;;;;;;;1.25;0.80;;;;;;;;;;5086358;28;20471;-73
2023/06/03 11:50:37;;;;;;;;;;;;;;;;;;5080910;28;20036;-73
2023/06/03 11:53:03;;;;;;;0.98;0.80;;;;;;;;;;5088469;28;19908;-73
2023/06/03 11:55:29;;;;;;;1.48;0.68;;;;;;;;;;5091019;28;20106;-73
2023/06/03 11:58:00;;;;;;;1.95;0.77;;;;;;;;;;5091180;28;20031;-73
2023/06/03 12:00:26;;;;;;;2.78;0.80;;;;;;;;;;5090969;28;20016;-73
2023/06/03 12:02:53;;;;;;;1.48;0.75;;;;;;;;;;5090595;28;20074;-73
2023/06/03 12:05:20;;;;;;;1.92;0.60;;;;;;;;;;5090912;28;20059;-73
2023/06/03 12:07:55;;;;;;;1.85;0.60;;;;;;;;;;5090309;28;20520;-73
2023/06/03 12:10:21;;;;;;;1.80;0.60;;;;;;;;;;5090574;28;20060;-73
2023/06/03 12:12:51;;;;;;;1.20;0.70;;;;;;;;;;5086410;28;20028;-73
2023/06/03 12:15:17;;;;;;;2.40;0.88;;;;;;;;;;5088121;28;20035;-73
2023/06/03 12:17:43;;;;;;;1.60;1.15;;;;;;;;;;5090565;28;20028;-73
2023/06/03 12:20:09;;;;;;;1.13;0.60;;;;;;;;;;5090903;28;20030;-73
2023/06/03 12:22:35;;;;;;;1.15;0.77;;;;;;;;;;5080014;28;20025;-73
2023/06/03 12:25:01;;;;;;;1.48;0.80;;;;;;;;;;5090617;28;20093;-73
2023/06/03 12:27:29;;;;;;;2.15;0.90;;;;;;;;;;5086372;28;20048;-73
2023/06/03 12:29:57;;;;;;;2.13;0.80;;;;;;;;;;5083010;28;20028;-73
2023/06/03 12:32:25;;;;;;;1.38;0.63;;;;;;;;;;5090116;28;20039;-73
2023/06/03 12:34:51;;;;;;;1.52;0.80;;;;;;;;;;5090454;28;20536;-73
2023/06/03 12:37:30;;;;;;;1.05;0.60;;;;;;;;;;5087127;28;20115;-73
2023/06/03 12:39:57;;;;;;;2.17;0.63;;;;;;;;;;5090394;28;20024;-73
2023/06/03 12:42:36;;;;;;;0.90;0.63;;;;;;;;;;5090286;28;20118;-73
2023/06/03 12:45:02;;;;;;;1.60;0.60;;;;;;;;;;5083664;28;20501;-73
2023/06/03 12:47:29;;;;;;;3.03;0.85;;;;;;;;;;5087240;28;20038;-73
2023/06/03 12:50:08;;;;;;;1.40;0.65;;;;;;;;;;5082889;28;20048;-73
2023/06/03 12:52:36;;;;;;;1.13;0.37;;;;;;;;;;5086766;28;20043;-73
2023/06/03 12:55:03;;;;;;;0.70;0.70;;;;;;;;;;5085639;28;20762;-73
2023/06/03 12:57:30;;;;;;;0.60;0.60;;;;;;;;;;5087075;28;20416;-73
2023/06/03 13:00:09;;;;;;;2.90;0.70;;;;;;;;;;5088888;28;20016;-73
2023/06/03 13:02:39;;;;;;;1.50;0.60;;;;;;;;;;5089985;28;20040;-73
2023/06/03 13:05:06;;;;;;;0.90;0.70;;;;;;;;;;5082391;28;20040;-73
2023/06/03 13:07:35;;;;;;;1.05;0.80;;;;;;;;;;5089368;28;20562;-73
2023/06/03 13:10:03;;;;;;;1.40;0.57;;;;;;;;;;5082593;28;20039;-73
2023/06/03 13:12:32;;;;;;;1.23;0.70;;;;;;;;;;5090040;28;20039;-73
2023/06/03 13:14:59;;;;;;;2.10;0.70;;;;;;;;;;5081726;28;20020;-73
2023/06/03 13:17:26;;;;;;;2.55;0.70;;;;;;;;;;5089556;28;20035;-73
2023/06/03 13:19:52;;;;;;;1.13;0.80;;;;;;;;;;5089363;28;20517;-73
2023/06/03 13:22:19;;;;;;;1.65;0.60;;;;;;;;;;5087004;28;20043;-73
2023/06/03 13:24:45;;;;;;;1.60;0.70;;;;;;;;;;5069085;28;20510;-73
2023/06/03 13:27:12;;;;;;;3.25;0.90;;;;;;;;;;5084391;28;20032;-73
2023/06/03 13:29:39;;;;;;;1.10;0.60;;;;;;;;;;5086102;28;20070;-73
2023/06/03 13:32:05;;;;;;;1.13;0.80;;;;;;;;;;5090146;28;20024;-73
2023/06/03 13:34:31;;;;;;;1.33;0.90;;;;;;;;;;5090891;28;20054;-73
2023/06/03 13:36:57;;;;;;;0.80;0.73;;;;;;;;;;5090872;28;20024;-73
2023/06/03 13:39:24;;;;;;;1.25;0.75;;;;;;;;;;5087419;28;20055;-73
2023/06/03 13:41:53;;;;;;;1.52;0.68;;;;;;;;;;5084165;28;20050;-73
2023/06/03 13:44:20;;;;;;;2.53;1.15;;;;;;;;;;5091161;28;20024;-73
2023/06/03 13:46:50;;;;;;;0.85;0.57;;;;;;;;;;5090364;28;20016;-73
2023/06/03 13:49:17;;;;;;;1.38;0.70;;;;;;;;;;5084906;28;20035;-73
2023/06/03 13:51:43;;;;;;;1.67;1.10;;;;;;;;;;5089109;28;20439;-73
2023/06/03 13:54:09;;;;;;;2.05;1.00;;;;;;;;;;5075711;28;20592;-73
2023/06/03 13:56:35;;;;;;;1.20;1.00;;;;;;;;;;5090520;28;20103;-73
2023/06/03 13:59:03;;;;;;;2.22;1.05;;;;;;;;;;5090498;28;20028;-73
2023/06/03 14:01:30;;;;;;;2.63;0.85;;;;;;;;;;5087123;28;20479;-73
2023/06/03 14:03:56;;;;;;;1.52;0.90;;;;;;;;;;5089304;28;20491;-73
2023/06/03 14:06:22;;;;;;;1.30;0.60;;;;;;;;;;5085760;28;20051;-73
2023/06/03 14:08:48;;;;;;;1.20;0.90;;;;;;;;;;5087186;28;20424;-73
2023/06/03 14:11:15;;;;;;;2.78;1.20;;;;;;;;;;5090257;28;20024;-73
2023/06/03 14:13:41;;;;;;;1.35;0.70;;;;;;;;;;5090475;28;20016;-73
2023/06/03 14:16:06;;;;;;;1.77;0.80;;;;;;;;;;5087643;28;20020;-73
2023/06/03 14:18:32;;;;;;;1.75;0.60;;;;;;;;;;5090381;28;20043;-73
2023/06/03 14:20:58;;;;;;;1.50;0.60;;;;;;;;;;5086467;28;20027;-73
2023/06/03 14:23:24;;;;;;;1.13;0.80;;;;;;;;;;5083995;28;20035;-73
2023/06/03 14:25:50;;;;;;;1.98;0.98;;;;;;;;;;5085768;28;20025;-73
2023/06/03 14:28:17;;;;;;;1.73;1.02;;;;;;;;;;5090040;28;20729;-73
2023/06/03 14:30:43;;;;;;;1.42;0.80;;;;;;;;;;5067404;28;20027;-73
2023/06/03 14:33:09;;;;;;;0.93;0.77;;;;;;;;;;5089454;28;20028;-73
2023/06/03 14:35:35;;;;;;;1.42;0.95;;;;;;;;;;5084815;28;20028;-73
2023/06/03 14:38:01;;;;;;;0.82;0.73;;;;;;;;;;5088037;28;20050;-72
2023/06/03 14:40:27;;;;;;;0.65;0.55;;;;;;;;;;5089224;28;20502;-73
2023/06/03 14:42:53;;;;;;;0.90;0.50;;;;;;;;;;5090311;28;20063;-73
2023/06/03 14:45:19;;;;;;;0.60;0.50;;;;;;;;;;5089865;28;20058;-73
2023/06/03 14:47:45;;;;;;;2.95;0.52;;;;;;;;;;5090038;28;20056;-72